sensor_id;sensor_type;location;lat;lon;timestamp;temperature;humidity
8953;DHT22;4511;50.890;8.054;2022-08-19T00:00:10;19.80;99.90
8953;DHT22;4511;50.890;8.054;2022-08-19T00:02:40;19.60;99.90
8953;DHT22;4511;50.890;8.054;2022-08-19T00:05:08;19.30;99.90
8953;DHT22;4511;50.890;8.054;2022-08-19T00:07:35;19.20;99.90
8953;DHT22;4511;50.890;8.054;2022-08-19T00:10:03;19.30;99.90
8953;DHT22;4511;50.890;8.054;2022-08-19T00:12:30;19.40;99.90
8953;DHT22;4511;50.890;8.054;2022-08-19T00:14:57;19.40;99.90
8953;DHT22;4511;50.890;8.054;2022-08-19T00:17:25;19.50;99.90
8953;DHT22;4511;50.890;8.054;2022-08-19T00:19:52;19.50;99.90
8953;DHT22;4511;50.890;8.054;2022-08-19T00:22:19;19.60;99.90
8953;DHT22;4511;50.890;8.054;2022-08-19T00:24:45;19.70;99.90
8953;DHT22;4511;50.890;8.054;2022-08-19T00:27:13;19.60;99.90
8953;DHT22;4511;50.890;8.054;2022-08-19T00:29:40;19.70;99.90
8953;DHT22;4511;50.890;8.054;2022-08-19T00:32:07;19.70;99.90
8953;DHT22;4511;50.890;8.054;2022-08-19T00:34:35;19.60;99.90
8953;DHT22;4511;50.890;8.054;2022-08-19T00:37:02;19.60;99.90
8953;DHT22;4511;50.890;8.054;2022-08-19T00:39:28;19.60;99.90
8953;DHT22;4511;50.890;8.054;2022-08-19T00:41:55;19.60;99.90
8953;DHT22;4511;50.890;8.054;2022-08-19T00:44:24;19.50;99.90
8953;DHT22;4511;50.890;8.054;2022-08-19T00:46:53;19.50;99.90
8953;DHT22;4511;50.890;8.054;2022-08-19T00:49:22;19.50;99.90
8953;DHT22;4511;50.890;8.054;2022-08-19T00:51:55;19.50;99.90
8953;DHT22;4511;50.890;8.054;2022-08-19T00:54:24;19.50;99.90
8953;DHT22;4511;50.890;8.054;2022-08-19T00:56:52;19.50;99.90
8953;DHT22;4511;50.890;8.054;2022-08-19T00:59:20;19.50;99.90
8953;DHT22;4511;50.890;8.054;2022-08-19T01:01:47;19.50;99.90
8953;DHT22;4511;50.890;8.054;2022-08-19T01:04:14;19.40;99.90
8953;DHT22;4511;50.890;8.054;2022-08-19T01:06:42;19.40;99.90
8953;DHT22;4511;50.890;8.054;2022-08-19T01:09:10;19.30;99.90
8953;DHT22;4511;50.890;8.054;2022-08-19T01:11:39;19.30;99.90
8953;DHT22;4511;50.890;8.054;2022-08-19T01:14:08;19.30;99.90
8953;DHT22;4511;50.890;8.054;2022-08-19T01:16:37;19.30;99.90
8953;DHT22;4511;50.890;8.054;2022-08-19T01:19:12;19.30;99.90
8953;DHT22;4511;50.890;8.054;2022-08-19T01:21:48;19.20;99.90
8953;DHT22;4511;50.890;8.054;2022-08-19T01:24:18;19.30;99.90
8953;DHT22;4511;50.890;8.054;2022-08-19T01:26:45;19.20;99.90
8953;DHT22;4511;50.890;8.054;2022-08-19T01:29:12;19.10;99.90
8953;DHT22;4511;50.890;8.054;2022-08-19T01:31:39;19.10;99.90
8953;DHT22;4511;50.890;8.054;2022-08-19T01:34:06;19.00;99.90
8953;DHT22;4511;50.890;8.054;2022-08-19T01:36:36;19.10;99.90
8953;DHT22;4511;50.890;8.054;2022-08-19T01:39:06;19.10;99.90
8953;DHT22;4511;50.890;8.054;2022-08-19T01:41:36;19.00;99.90
8953;DHT22;4511;50.890;8.054;2022-08-19T01:44:04;18.90;99.90
8953;DHT22;4511;50.890;8.054;2022-08-19T01:46:31;19.00;99.90
8953;DHT22;4511;50.890;8.054;2022-08-19T01:48:58;19.00;99.90
8953;DHT22;4511;50.890;8.054;2022-08-19T01:51:25;18.90;99.90
8953;DHT22;4511;50.890;8.054;2022-08-19T01:53:52;18.90;99.90
8953;DHT22;4511;50.890;8.054;2022-08-19T01:56:19;18.90;99.90
8953;DHT22;4511;50.890;8.054;2022-08-19T01:58:52;18.90;99.90
8953;DHT22;4511;50.890;8.054;2022-08-19T02:01:20;18.90;99.90
8953;DHT22;4511;50.890;8.054;2022-08-19T02:03:46;18.80;99.90
8953;DHT22;4511;50.890;8.054;2022-08-19T02:06:13;18.80;99.90
8953;DHT22;4511;50.890;8.054;2022-08-19T02:08:42;18.80;99.90
8953;DHT22;4511;50.890;8.054;2022-08-19T02:11:19;18.80;99.90
8953;DHT22;4511;50.890;8.054;2022-08-19T02:13:48;18.70;99.90
8953;DHT22;4511;50.890;8.054;2022-08-19T02:16:16;18.60;99.90
8953;DHT22;4511;50.890;8.054;2022-08-19T02:18:42;18.70;99.90
8953;DHT22;4511;50.890;8.054;2022-08-19T02:21:09;18.70;99.90
8953;DHT22;4511;50.890;8.054;2022-08-19T02:23:36;18.70;99.90
8953;DHT22;4511;50.890;8.054;2022-08-19T02:26:02;18.60;99.90
8953;DHT22;4511;50.890;8.054;2022-08-19T02:28:29;18.60;99.90
8953;DHT22;4511;50.890;8.054;2022-08-19T02:30:59;18.50;99.90
8953;DHT22;4511;50.890;8.054;2022-08-19T02:33:27;18.50;99.90
8953;DHT22;4511;50.890;8.054;2022-08-19T02:35:54;18.50;99.90
8953;DHT22;4511;50.890;8.054;2022-08-19T02:38:21;18.40;99.90
8953;DHT22;4511;50.890;8.054;2022-08-19T02:40:55;18.40;99.90
8953;DHT22;4511;50.890;8.054;2022-08-19T02:43:24;18.40;99.90
8953;DHT22;4511;50.890;8.054;2022-08-19T02:45:52;18.50;99.90
8953;DHT22;4511;50.890;8.054;2022-08-19T02:48:21;18.50;99.90
8953;DHT22;4511;50.890;8.054;2022-08-19T02:50:50;18.50;99.90
8953;DHT22;4511;50.890;8.054;2022-08-19T02:53:20;18.40;99.90
8953;DHT22;4511;50.890;8.054;2022-08-19T02:55:47;18.30;99.90
8953;DHT22;4511;50.890;8.054;2022-08-19T02:58:15;18.30;99.90
8953;DHT22;4511;50.890;8.054;2022-08-19T03:00:46;18.30;99.90
8953;DHT22;4511;50.890;8.054;2022-08-19T03:03:14;18.40;99.90
8953;DHT22;4511;50.890;8.054;2022-08-19T03:05:42;18.30;99.90
8953;DHT22;4511;50.890;8.054;2022-08-19T03:08:11;18.20;99.90
8953;DHT22;4511;50.890;8.054;2022-08-19T03:10:43;18.30;99.90
8953;DHT22;4511;50.890;8.054;2022-08-19T03:13:13;18.30;99.90
8953;DHT22;4511;50.890;8.054;2022-08-19T03:15:42;18.20;99.90
8953;DHT22;4511;50.890;8.054;2022-08-19T03:18:09;18.20;99.90
8953;DHT22;4511;50.890;8.054;2022-08-19T03:20:42;18.10;99.90
8953;DHT22;4511;50.890;8.054;2022-08-19T03:23:10;18.10;99.90
8953;DHT22;4511;50.890;8.054;2022-08-19T03:25:39;18.20;99.90
8953;DHT22;4511;50.890;8.054;2022-08-19T03:28:09;18.10;99.90
8953;DHT22;4511;50.890;8.054;2022-08-19T03:30:36;18.10;99.90
8953;DHT22;4511;50.890;8.054;2022-08-19T03:33:02;18.00;99.90
8953;DHT22;4511;50.890;8.054;2022-08-19T03:35:29;18.10;99.90
8953;DHT22;4511;50.890;8.054;2022-08-19T03:37:58;18.00;99.90
8953;DHT22;4511;50.890;8.054;2022-08-19T03:40:24;17.90;99.90
8953;DHT22;4511;50.890;8.054;2022-08-19T03:42:51;17.80;99.90
8953;DHT22;4511;50.890;8.054;2022-08-19T03:45:18;17.90;99.90
8953;DHT22;4511;50.890;8.054;2022-08-19T03:47:45;17.90;99.90
8953;DHT22;4511;50.890;8.054;2022-08-19T03:50:11;17.90;99.90
8953;DHT22;4511;50.890;8.054;2022-08-19T03:52:38;17.90;99.90
8953;DHT22;4511;50.890;8.054;2022-08-19T03:57:34;17.80;99.90
8953;DHT22;4511;50.890;8.054;2022-08-19T04:00:02;17.70;99.90
8953;DHT22;4511;50.890;8.054;2022-08-19T04:02:30;17.70;99.90
8953;DHT22;4511;50.890;8.054;2022-08-19T04:04:57;17.70;99.90
8953;DHT22;4511;50.890;8.054;2022-08-19T04:07:23;17.80;99.90
8953;DHT22;4511;50.890;8.054;2022-08-19T04:09:50;17.70;99.90
8953;DHT22;4511;50.890;8.054;2022-08-19T04:12:19;17.70;99.90
8953;DHT22;4511;50.890;8.054;2022-08-19T04:14:47;17.60;99.90
8953;DHT22;4511;50.890;8.054;2022-08-19T04:17:13;17.70;99.90
8953;DHT22;4511;50.890;8.054;2022-08-19T04:19:40;17.70;99.90
8953;DHT22;4511;50.890;8.054;2022-08-19T04:22:08;17.70;99.90
8953;DHT22;4511;50.890;8.054;2022-08-19T04:24:37;17.70;99.90
8953;DHT22;4511;50.890;8.054;2022-08-19T04:27:04;17.70;99.90
8953;DHT22;4511;50.890;8.054;2022-08-19T04:29:33;17.70;99.90
8953;DHT22;4511;50.890;8.054;2022-08-19T04:32:00;17.70;99.90
8953;DHT22;4511;50.890;8.054;2022-08-19T04:34:28;17.70;99.90
8953;DHT22;4511;50.890;8.054;2022-08-19T04:36:57;17.70;99.90
8953;DHT22;4511;50.890;8.054;2022-08-19T04:39:27;17.70;99.90
8953;DHT22;4511;50.890;8.054;2022-08-19T04:42:15;17.70;99.90
8953;DHT22;4511;50.890;8.054;2022-08-19T04:45:01;17.60;99.90
8953;DHT22;4511;50.890;8.054;2022-08-19T04:47:28;17.70;99.90
8953;DHT22;4511;50.890;8.054;2022-08-19T04:49:57;17.60;99.90
8953;DHT22;4511;50.890;8.054;2022-08-19T04:52:24;17.70;99.90
8953;DHT22;4511;50.890;8.054;2022-08-19T04:54:51;17.70;99.90
8953;DHT22;4511;50.890;8.054;2022-08-19T04:57:18;17.70;99.90
8953;DHT22;4511;50.890;8.054;2022-08-19T04:59:45;17.50;99.90
8953;DHT22;4511;50.890;8.054;2022-08-19T05:02:13;17.50;99.90
8953;DHT22;4511;50.890;8.054;2022-08-19T05:04:40;17.40;99.90
8953;DHT22;4511;50.890;8.054;2022-08-19T05:07:07;17.40;99.90
8953;DHT22;4511;50.890;8.054;2022-08-19T05:09:35;17.50;99.90
8953;DHT22;4511;50.890;8.054;2022-08-19T05:12:02;17.60;99.90
8953;DHT22;4511;50.890;8.054;2022-08-19T05:14:30;17.70;99.90
8953;DHT22;4511;50.890;8.054;2022-08-19T05:16:56;17.80;99.90
8953;DHT22;4511;50.890;8.054;2022-08-19T05:19:24;18.10;99.90
8953;DHT22;4511;50.890;8.054;2022-08-19T05:22:09;18.20;99.90
8953;DHT22;4511;50.890;8.054;2022-08-19T05:24:53;18.30;99.90
8953;DHT22;4511;50.890;8.054;2022-08-19T05:27:20;18.50;99.90
8953;DHT22;4511;50.890;8.054;2022-08-19T05:29:47;18.20;99.90
8953;DHT22;4511;50.890;8.054;2022-08-19T05:32:14;18.10;99.90
8953;DHT22;4511;50.890;8.054;2022-08-19T05:34:42;18.00;99.90
8953;DHT22;4511;50.890;8.054;2022-08-19T05:37:08;18.00;99.90
8953;DHT22;4511;50.890;8.054;2022-08-19T05:39:37;18.10;99.90
8953;DHT22;4511;50.890;8.054;2022-08-19T05:42:07;18.10;99.90
8953;DHT22;4511;50.890;8.054;2022-08-19T05:44:38;18.20;99.90
8953;DHT22;4511;50.890;8.054;2022-08-19T05:47:09;18.20;99.90
8953;DHT22;4511;50.890;8.054;2022-08-19T05:49:37;18.20;99.90
8953;DHT22;4511;50.890;8.054;2022-08-19T05:52:08;18.20;99.90
8953;DHT22;4511;50.890;8.054;2022-08-19T05:54:37;18.20;99.90
8953;DHT22;4511;50.890;8.054;2022-08-19T05:57:06;18.10;99.90
8953;DHT22;4511;50.890;8.054;2022-08-19T05:59:32;18.00;99.90
8953;DHT22;4511;50.890;8.054;2022-08-19T06:02:01;18.10;99.90
8953;DHT22;4511;50.890;8.054;2022-08-19T06:04:28;18.10;99.90
8953;DHT22;4511;50.890;8.054;2022-08-19T06:06:55;18.10;99.90
8953;DHT22;4511;50.890;8.054;2022-08-19T06:09:24;18.20;99.90
8953;DHT22;4511;50.890;8.054;2022-08-19T06:11:52;18.20;99.90
8953;DHT22;4511;50.890;8.054;2022-08-19T06:14:21;18.20;99.90
8953;DHT22;4511;50.890;8.054;2022-08-19T06:16:50;18.20;99.90
8953;DHT22;4511;50.890;8.054;2022-08-19T06:19:19;18.30;99.90
8953;DHT22;4511;50.890;8.054;2022-08-19T06:21:48;18.40;99.90
8953;DHT22;4511;50.890;8.054;2022-08-19T06:24:17;18.40;99.90
8953;DHT22;4511;50.890;8.054;2022-08-19T06:26:47;18.40;99.90
8953;DHT22;4511;50.890;8.054;2022-08-19T06:29:16;18.40;99.90
8953;DHT22;4511;50.890;8.054;2022-08-19T06:31:45;18.40;99.90
8953;DHT22;4511;50.890;8.054;2022-08-19T06:34:13;18.40;99.90
8953;DHT22;4511;50.890;8.054;2022-08-19T06:36:42;18.50;99.90
8953;DHT22;4511;50.890;8.054;2022-08-19T06:39:11;18.70;99.90
8953;DHT22;4511;50.890;8.054;2022-08-19T06:41:41;18.80;99.90
8953;DHT22;4511;50.890;8.054;2022-08-19T06:44:10;18.80;99.90
8953;DHT22;4511;50.890;8.054;2022-08-19T06:46:38;18.90;99.90
8953;DHT22;4511;50.890;8.054;2022-08-19T06:49:05;18.90;99.90
8953;DHT22;4511;50.890;8.054;2022-08-19T06:51:34;19.00;99.90
8953;DHT22;4511;50.890;8.054;2022-08-19T06:54:02;19.10;99.90
8953;DHT22;4511;50.890;8.054;2022-08-19T06:56:30;19.10;99.90
8953;DHT22;4511;50.890;8.054;2022-08-19T06:58:59;19.20;99.90
8953;DHT22;4511;50.890;8.054;2022-08-19T07:01:27;19.30;99.90
8953;DHT22;4511;50.890;8.054;2022-08-19T07:03:54;19.30;99.90
8953;DHT22;4511;50.890;8.054;2022-08-19T07:06:21;19.30;99.90
8953;DHT22;4511;50.890;8.054;2022-08-19T07:08:48;19.40;99.90
8953;DHT22;4511;50.890;8.054;2022-08-19T07:11:17;19.40;99.90
8953;DHT22;4511;50.890;8.054;2022-08-19T07:13:45;19.50;99.90
8953;DHT22;4511;50.890;8.054;2022-08-19T07:16:15;19.50;99.90
8953;DHT22;4511;50.890;8.054;2022-08-19T07:18:43;19.50;99.90
8953;DHT22;4511;50.890;8.054;2022-08-19T07:21:13;19.50;99.90
8953;DHT22;4511;50.890;8.054;2022-08-19T07:23:41;19.50;99.90
8953;DHT22;4511;50.890;8.054;2022-08-19T07:26:08;19.60;99.90
8953;DHT22;4511;50.890;8.054;2022-08-19T07:28:35;19.70;99.90
8953;DHT22;4511;50.890;8.054;2022-08-19T07:31:05;19.80;99.90
8953;DHT22;4511;50.890;8.054;2022-08-19T07:33:32;19.80;99.90
8953;DHT22;4511;50.890;8.054;2022-08-19T07:36:03;19.90;99.90
8953;DHT22;4511;50.890;8.054;2022-08-19T07:38:30;20.00;99.90
8953;DHT22;4511;50.890;8.054;2022-08-19T07:40:57;20.20;99.90
8953;DHT22;4511;50.890;8.054;2022-08-19T07:43:24;20.40;99.90
8953;DHT22;4511;50.890;8.054;2022-08-19T07:45:52;20.50;99.90
8953;DHT22;4511;50.890;8.054;2022-08-19T07:48:21;20.70;99.90
8953;DHT22;4511;50.890;8.054;2022-08-19T07:50:51;20.90;99.90
8953;DHT22;4511;50.890;8.054;2022-08-19T07:53:19;21.00;99.90
8953;DHT22;4511;50.890;8.054;2022-08-19T07:55:46;21.10;99.90
8953;DHT22;4511;50.890;8.054;2022-08-19T07:58:14;21.10;99.90
8953;DHT22;4511;50.890;8.054;2022-08-19T08:00:43;21.20;99.90
8953;DHT22;4511;50.890;8.054;2022-08-19T08:03:11;21.20;99.90
8953;DHT22;4511;50.890;8.054;2022-08-19T08:05:38;21.30;99.90
8953;DHT22;4511;50.890;8.054;2022-08-19T08:08:26;21.30;99.90
8953;DHT22;4511;50.890;8.054;2022-08-19T08:11:11;21.40;99.90
8953;DHT22;4511;50.890;8.054;2022-08-19T08:13:38;21.40;99.90
8953;DHT22;4511;50.890;8.054;2022-08-19T08:16:07;21.30;99.90
8953;DHT22;4511;50.890;8.054;2022-08-19T08:18:34;21.20;99.90
8953;DHT22;4511;50.890;8.054;2022-08-19T08:21:07;21.10;99.90
8953;DHT22;4511;50.890;8.054;2022-08-19T08:23:35;21.20;99.90
8953;DHT22;4511;50.890;8.054;2022-08-19T08:26:02;21.30;99.90
8953;DHT22;4511;50.890;8.054;2022-08-19T08:28:30;21.10;99.90
8953;DHT22;4511;50.890;8.054;2022-08-19T08:30:57;21.30;99.90
8953;DHT22;4511;50.890;8.054;2022-08-19T08:33:26;21.40;99.90
8953;DHT22;4511;50.890;8.054;2022-08-19T08:35:52;21.60;99.90
8953;DHT22;4511;50.890;8.054;2022-08-19T08:38:19;21.80;99.90
8953;DHT22;4511;50.890;8.054;2022-08-19T08:40:50;21.90;99.90
8953;DHT22;4511;50.890;8.054;2022-08-19T08:43:23;21.90;99.90
8953;DHT22;4511;50.890;8.054;2022-08-19T08:45:56;22.10;99.90
8953;DHT22;4511;50.890;8.054;2022-08-19T08:48:32;22.10;99.90
8953;DHT22;4511;50.890;8.054;2022-08-19T08:51:02;22.10;99.90
8953;DHT22;4511;50.890;8.054;2022-08-19T08:53:31;22.30;99.90
8953;DHT22;4511;50.890;8.054;2022-08-19T08:56:03;22.40;99.90
8953;DHT22;4511;50.890;8.054;2022-08-19T08:58:39;22.50;99.90
8953;DHT22;4511;50.890;8.054;2022-08-19T09:01:09;22.60;99.90
8953;DHT22;4511;50.890;8.054;2022-08-19T09:03:37;22.80;99.90
8953;DHT22;4511;50.890;8.054;2022-08-19T09:08:40;23.00;99.90
8953;DHT22;4511;50.890;8.054;2022-08-19T09:11:17;22.70;99.90
8953;DHT22;4511;50.890;8.054;2022-08-19T09:13:51;22.70;99.90
8953;DHT22;4511;50.890;8.054;2022-08-19T09:16:22;22.80;99.90
8953;DHT22;4511;50.890;8.054;2022-08-19T09:18:55;23.00;99.90
8953;DHT22;4511;50.890;8.054;2022-08-19T09:21:25;23.20;99.90
8953;DHT22;4511;50.890;8.054;2022-08-19T09:23:53;23.50;99.90
8953;DHT22;4511;50.890;8.054;2022-08-19T09:26:22;23.50;99.90
8953;DHT22;4511;50.890;8.054;2022-08-19T09:28:51;23.40;99.90
8953;DHT22;4511;50.890;8.054;2022-08-19T09:31:19;23.40;99.90
8953;DHT22;4511;50.890;8.054;2022-08-19T09:33:47;23.30;99.90
8953;DHT22;4511;50.890;8.054;2022-08-19T09:36:16;23.40;99.90
8953;DHT22;4511;50.890;8.054;2022-08-19T09:38:44;23.70;99.90
8953;DHT22;4511;50.890;8.054;2022-08-19T09:41:14;24.00;99.90
8953;DHT22;4511;50.890;8.054;2022-08-19T09:43:44;24.40;99.90
8953;DHT22;4511;50.890;8.054;2022-08-19T09:46:12;24.50;99.90
8953;DHT22;4511;50.890;8.054;2022-08-19T09:48:40;24.50;99.90
8953;DHT22;4511;50.890;8.054;2022-08-19T09:51:10;24.70;99.90
8953;DHT22;4511;50.890;8.054;2022-08-19T09:53:40;24.80;99.90
8953;DHT22;4511;50.890;8.054;2022-08-19T09:56:07;25.10;99.90
8953;DHT22;4511;50.890;8.054;2022-08-19T09:58:35;25.30;99.90
8953;DHT22;4511;50.890;8.054;2022-08-19T10:01:05;25.20;99.90
8953;DHT22;4511;50.890;8.054;2022-08-19T10:03:34;25.10;99.90
8953;DHT22;4511;50.890;8.054;2022-08-19T10:06:03;25.30;99.90
8953;DHT22;4511;50.890;8.054;2022-08-19T10:08:32;25.30;99.90
8953;DHT22;4511;50.890;8.054;2022-08-19T10:11:00;25.30;99.90
8953;DHT22;4511;50.890;8.054;2022-08-19T10:13:29;25.50;99.90
8953;DHT22;4511;50.890;8.054;2022-08-19T10:16:05;25.60;99.90
8953;DHT22;4511;50.890;8.054;2022-08-19T10:18:33;25.80;99.90
8953;DHT22;4511;50.890;8.054;2022-08-19T10:21:05;25.70;99.90
8953;DHT22;4511;50.890;8.054;2022-08-19T10:23:35;25.50;99.90
8953;DHT22;4511;50.890;8.054;2022-08-19T10:26:02;25.30;99.90
8953;DHT22;4511;50.890;8.054;2022-08-19T10:28:32;25.60;99.90
8953;DHT22;4511;50.890;8.054;2022-08-19T10:31:04;26.00;99.90
8953;DHT22;4511;50.890;8.054;2022-08-19T10:33:32;26.40;99.90
8953;DHT22;4511;50.890;8.054;2022-08-19T10:35:59;26.80;99.90
8953;DHT22;4511;50.890;8.054;2022-08-19T10:38:26;26.70;99.90
8953;DHT22;4511;50.890;8.054;2022-08-19T10:43:21;26.30;99.90
8953;DHT22;4511;50.890;8.054;2022-08-19T10:45:52;26.50;99.90
8953;DHT22;4511;50.890;8.054;2022-08-19T10:48:20;26.70;99.90
8953;DHT22;4511;50.890;8.054;2022-08-19T10:50:47;27.00;99.90
8953;DHT22;4511;50.890;8.054;2022-08-19T10:53:31;27.20;99.90
8953;DHT22;4511;50.890;8.054;2022-08-19T10:55:58;27.40;99.90
8953;DHT22;4511;50.890;8.054;2022-08-19T10:58:42;27.00;99.90
8953;DHT22;4511;50.890;8.054;2022-08-19T11:01:10;26.70;99.90
8953;DHT22;4511;50.890;8.054;2022-08-19T11:03:38;26.60;99.90
8953;DHT22;4511;50.890;8.054;2022-08-19T11:06:06;27.10;99.90
8953;DHT22;4511;50.890;8.054;2022-08-19T11:08:35;27.40;99.90
8953;DHT22;4511;50.890;8.054;2022-08-19T11:11:04;27.70;99.90
8953;DHT22;4511;50.890;8.054;2022-08-19T11:13:33;27.70;99.90
8953;DHT22;4511;50.890;8.054;2022-08-19T11:16:04;28.10;99.90
8953;DHT22;4511;50.890;8.054;2022-08-19T11:18:32;28.30;99.90
8953;DHT22;4511;50.890;8.054;2022-08-19T11:21:08;28.50;99.90
8953;DHT22;4511;50.890;8.054;2022-08-19T11:23:35;28.00;99.90
8953;DHT22;4511;50.890;8.054;2022-08-19T11:26:02;27.80;99.90
8953;DHT22;4511;50.890;8.054;2022-08-19T11:28:29;27.20;99.90
8953;DHT22;4511;50.890;8.054;2022-08-19T11:30:56;27.30;99.90
8953;DHT22;4511;50.890;8.054;2022-08-19T11:33:23;27.80;99.90
8953;DHT22;4511;50.890;8.054;2022-08-19T11:35:51;28.20;99.90
8953;DHT22;4511;50.890;8.054;2022-08-19T11:38:20;28.60;99.90
8953;DHT22;4511;50.890;8.054;2022-08-19T11:40:55;28.30;99.90
8953;DHT22;4511;50.890;8.054;2022-08-19T11:43:21;27.80;99.90
8953;DHT22;4511;50.890;8.054;2022-08-19T11:45:48;27.80;99.90
8953;DHT22;4511;50.890;8.054;2022-08-19T11:48:15;27.80;99.90
8953;DHT22;4511;50.890;8.054;2022-08-19T11:50:42;28.20;99.90
8953;DHT22;4511;50.890;8.054;2022-08-19T11:53:09;28.70;99.90
8953;DHT22;4511;50.890;8.054;2022-08-19T11:55:38;29.00;99.90
8953;DHT22;4511;50.890;8.054;2022-08-19T11:58:05;29.20;99.50
8953;DHT22;4511;50.890;8.054;2022-08-19T12:00:33;29.30;99.20
8953;DHT22;4511;50.890;8.054;2022-08-19T12:03:01;28.70;99.60
8953;DHT22;4511;50.890;8.054;2022-08-19T12:05:27;28.20;99.10
8953;DHT22;4511;50.890;8.054;2022-08-19T12:07:54;27.70;99.90
8953;DHT22;4511;50.890;8.054;2022-08-19T12:10:22;27.40;99.90
8953;DHT22;4511;50.890;8.054;2022-08-19T12:12:50;27.90;99.90
8953;DHT22;4511;50.890;8.054;2022-08-19T12:15:17;28.40;99.80
8953;DHT22;4511;50.890;8.054;2022-08-19T12:17:44;28.60;99.90
8953;DHT22;4511;50.890;8.054;2022-08-19T12:20:11;29.10;99.50
8953;DHT22;4511;50.890;8.054;2022-08-19T12:22:41;29.80;98.40
8953;DHT22;4511;50.890;8.054;2022-08-19T12:25:08;30.30;98.20
8953;DHT22;4511;50.890;8.054;2022-08-19T12:27:36;30.00;97.10
8953;DHT22;4511;50.890;8.054;2022-08-19T12:30:06;30.00;97.10
8953;DHT22;4511;50.890;8.054;2022-08-19T12:32:34;30.00;97.50
8953;DHT22;4511;50.890;8.054;2022-08-19T12:35:00;29.90;96.00
8953;DHT22;4511;50.890;8.054;2022-08-19T12:37:27;30.10;95.50
8953;DHT22;4511;50.890;8.054;2022-08-19T12:39:57;29.90;95.20
8953;DHT22;4511;50.890;8.054;2022-08-19T12:42:23;30.30;95.40
8953;DHT22;4511;50.890;8.054;2022-08-19T12:44:50;31.20;94.80
8953;DHT22;4511;50.890;8.054;2022-08-19T12:47:19;31.10;94.10
8953;DHT22;4511;50.890;8.054;2022-08-19T12:49:46;31.00;94.00
8953;DHT22;4511;50.890;8.054;2022-08-19T12:52:15;31.60;92.90
8953;DHT22;4511;50.890;8.054;2022-08-19T12:54:42;31.50;92.20
8953;DHT22;4511;50.890;8.054;2022-08-19T12:57:10;31.90;92.50
8953;DHT22;4511;50.890;8.054;2022-08-19T12:59:38;31.50;92.10
8953;DHT22;4511;50.890;8.054;2022-08-19T13:02:06;31.30;91.60
8953;DHT22;4511;50.890;8.054;2022-08-19T13:04:35;31.80;91.50
8953;DHT22;4511;50.890;8.054;2022-08-19T13:07:06;32.00;91.20
8953;DHT22;4511;50.890;8.054;2022-08-19T13:09:32;32.10;90.60
8953;DHT22;4511;50.890;8.054;2022-08-19T13:11:59;32.40;89.10
8953;DHT22;4511;50.890;8.054;2022-08-19T13:14:28;31.60;87.70
8953;DHT22;4511;50.890;8.054;2022-08-19T13:16:56;30.70;89.10
8953;DHT22;4511;50.890;8.054;2022-08-19T13:19:23;30.40;88.90
8953;DHT22;4511;50.890;8.054;2022-08-19T13:21:51;29.90;90.40
8953;DHT22;4511;50.890;8.054;2022-08-19T13:24:19;29.60;91.20
8953;DHT22;4511;50.890;8.054;2022-08-19T13:26:46;29.60;91.10
8953;DHT22;4511;50.890;8.054;2022-08-19T13:29:13;30.10;90.50
8953;DHT22;4511;50.890;8.054;2022-08-19T13:31:58;30.80;89.20
8953;DHT22;4511;50.890;8.054;2022-08-19T13:34:42;31.40;88.90
8953;DHT22;4511;50.890;8.054;2022-08-19T13:37:10;30.90;88.60
8953;DHT22;4511;50.890;8.054;2022-08-19T13:39:36;30.40;90.60
8953;DHT22;4511;50.890;8.054;2022-08-19T13:42:04;29.80;92.00
8953;DHT22;4511;50.890;8.054;2022-08-19T13:44:32;29.20;92.60
8953;DHT22;4511;50.890;8.054;2022-08-19T13:47:01;28.80;93.00
8953;DHT22;4511;50.890;8.054;2022-08-19T13:49:32;28.60;93.50
8953;DHT22;4511;50.890;8.054;2022-08-19T13:51:59;28.60;94.00
8953;DHT22;4511;50.890;8.054;2022-08-19T13:54:28;28.30;94.30
8953;DHT22;4511;50.890;8.054;2022-08-19T13:56:54;28.30;94.60
8953;DHT22;4511;50.890;8.054;2022-08-19T13:59:21;28.40;94.60
8953;DHT22;4511;50.890;8.054;2022-08-19T14:01:48;28.40;94.70
8953;DHT22;4511;50.890;8.054;2022-08-19T14:04:15;28.00;95.40
8953;DHT22;4511;50.890;8.054;2022-08-19T14:06:42;27.90;96.10
8953;DHT22;4511;50.890;8.054;2022-08-19T14:09:08;28.10;96.30
8953;DHT22;4511;50.890;8.054;2022-08-19T14:11:36;27.80;95.90
8953;DHT22;4511;50.890;8.054;2022-08-19T14:14:03;27.90;95.90
8953;DHT22;4511;50.890;8.054;2022-08-19T14:16:30;29.00;94.50
8953;DHT22;4511;50.890;8.054;2022-08-19T14:18:57;30.00;93.60
8953;DHT22;4511;50.890;8.054;2022-08-19T14:21:24;31.10;92.90
8953;DHT22;4511;50.890;8.054;2022-08-19T14:23:51;31.70;91.40
8953;DHT22;4511;50.890;8.054;2022-08-19T14:26:20;31.60;90.70
8953;DHT22;4511;50.890;8.054;2022-08-19T14:28:49;31.20;90.90
8953;DHT22;4511;50.890;8.054;2022-08-19T14:31:18;31.90;90.10
8953;DHT22;4511;50.890;8.054;2022-08-19T14:33:49;32.20;89.80
8953;DHT22;4511;50.890;8.054;2022-08-19T14:36:17;32.00;88.50
8953;DHT22;4511;50.890;8.054;2022-08-19T14:38:44;32.50;87.50
8953;DHT22;4511;50.890;8.054;2022-08-19T14:41:14;32.60;86.20
8953;DHT22;4511;50.890;8.054;2022-08-19T14:43:43;33.10;84.00
8953;DHT22;4511;50.890;8.054;2022-08-19T14:46:12;32.70;83.50
8953;DHT22;4511;50.890;8.054;2022-08-19T14:48:39;32.50;83.30
8953;DHT22;4511;50.890;8.054;2022-08-19T14:51:06;32.20;84.30
8953;DHT22;4511;50.890;8.054;2022-08-19T14:53:33;32.70;82.80
8953;DHT22;4511;50.890;8.054;2022-08-19T14:56:00;32.60;81.40
8953;DHT22;4511;50.890;8.054;2022-08-19T14:58:28;32.40;81.10
8953;DHT22;4511;50.890;8.054;2022-08-19T15:00:54;32.00;80.60
8953;DHT22;4511;50.890;8.054;2022-08-19T15:03:22;31.90;80.70
8953;DHT22;4511;50.890;8.054;2022-08-19T15:05:49;31.50;81.60
8953;DHT22;4511;50.890;8.054;2022-08-19T15:08:16;31.40;81.20
8953;DHT22;4511;50.890;8.054;2022-08-19T15:10:43;31.50;82.60
8953;DHT22;4511;50.890;8.054;2022-08-19T15:13:09;31.40;82.30
8953;DHT22;4511;50.890;8.054;2022-08-19T15:15:36;31.80;80.90
8953;DHT22;4511;50.890;8.054;2022-08-19T15:18:04;32.70;80.20
8953;DHT22;4511;50.890;8.054;2022-08-19T15:20:32;33.40;76.20
8953;DHT22;4511;50.890;8.054;2022-08-19T15:22:59;33.60;75.40
8953;DHT22;4511;50.890;8.054;2022-08-19T15:25:26;32.80;73.90
8953;DHT22;4511;50.890;8.054;2022-08-19T15:27:55;33.70;74.20
8953;DHT22;4511;50.890;8.054;2022-08-19T15:30:26;33.80;73.40
8953;DHT22;4511;50.890;8.054;2022-08-19T15:32:57;33.30;72.50
8953;DHT22;4511;50.890;8.054;2022-08-19T15:35:24;32.60;73.10
8953;DHT22;4511;50.890;8.054;2022-08-19T15:37:53;32.80;73.60
8953;DHT22;4511;50.890;8.054;2022-08-19T15:40:22;32.60;72.90
8953;DHT22;4511;50.890;8.054;2022-08-19T15:42:49;32.20;72.70
8953;DHT22;4511;50.890;8.054;2022-08-19T15:45:17;32.40;73.40
8953;DHT22;4511;50.890;8.054;2022-08-19T15:47:45;32.60;73.50
8953;DHT22;4511;50.890;8.054;2022-08-19T15:50:13;33.00;72.80
8953;DHT22;4511;50.890;8.054;2022-08-19T15:52:45;33.10;72.40
8953;DHT22;4511;50.890;8.054;2022-08-19T15:55:14;33.40;73.10
8953;DHT22;4511;50.890;8.054;2022-08-19T15:57:40;33.00;74.90
8953;DHT22;4511;50.890;8.054;2022-08-19T16:00:25;33.50;74.30
8953;DHT22;4511;50.890;8.054;2022-08-19T16:03:13;33.60;74.20
8953;DHT22;4511;50.890;8.054;2022-08-19T16:05:57;33.00;71.70
8953;DHT22;4511;50.890;8.054;2022-08-19T16:08:42;32.80;72.70
8953;DHT22;4511;50.890;8.054;2022-08-19T16:11:11;32.30;72.80
8953;DHT22;4511;50.890;8.054;2022-08-19T16:13:38;33.10;71.70
8953;DHT22;4511;50.890;8.054;2022-08-19T16:16:05;33.70;71.10
8953;DHT22;4511;50.890;8.054;2022-08-19T16:18:32;33.90;70.80